Time;durP1;ratioP1;P1;durP2;ratioP2;P2;SDS_P1;SDS_P2;PMS_P1;PMS_P2;Temp;Humidity;BMP_temperature;BMP_pressure;BME280_temperature;BME280_humidity;BME280_pressure;Samples;Min_cycle;Max_cycle;Signal;HPM_P1;HPM_P2
2023/04/02 00:01:27;;;;;;;7.28;1.08;;;;;;;1.13;100.00;99472.00;4913545;29;20544;-77
2023/04/02 00:03:58;;;;;;;2.42;1.00;;;;;;;1.15;100.00;99456.94;4933952;28;20135;-77
2023/04/02 00:06:32;;;;;;;7.97;0.82;;;;;;;1.09;100.00;99461.88;4935459;29;20070;-77
2023/04/02 00:09:16;;;;;;;1.70;0.82;;;;;;;1.07;100.00;99471.69;4935052;29;20036;-77
2023/04/02 00:11:47;;;;;;;3.28;0.77;;;;;;;0.93;100.00;99507.03;4922702;29;20076;-77
2023/04/02 00:14:25;;;;;;;5.35;1.13;;;;;;;1.09;100.00;99609.91;4928375;29;20549;-77
2023/04/02 00:16:52;;;;;;;5.82;1.30;;;;;;;1.05;100.00;99598.84;4927370;29;20082;-77
2023/04/02 00:19:56;;;;;;;4.68;0.88;;;;;;;0.96;100.00;99601.38;4936227;29;20028;-76
2023/04/02 00:22:33;;;;;;;3.90;0.88;;;;;;;0.91;100.00;99651.69;4925155;29;20048;-76
2023/04/02 00:25:02;;;;;;;3.60;1.30;;;;;;;0.83;100.00;99681.25;4917462;29;20410;-77
2023/04/02 00:27:29;;;;;;;2.55;0.60;;;;;;;0.82;100.00;99737.41;4913814;29;20083;-77
2023/04/02 00:29:57;;;;;;;5.10;0.80;;;;;;;0.81;100.00;99753.28;4940882;28;20032;-76
2023/04/02 00:32:26;;;;;;;2.55;0.50;;;;;;;0.83;100.00;99775.84;4917006;29;20039;-77
2023/04/02 00:34:53;;;;;;;1.80;0.43;;;;;;;0.81;100.00;99788.28;4937348;29;20410;-77
2023/04/02 00:37:22;;;;;;;5.55;1.40;;;;;;;0.82;100.00;99792.59;4919178;29;20039;-77
2023/04/02 00:39:51;;;;;;;2.33;0.60;;;;;;;0.92;100.00;99781.34;4938306;29;20024;-76
2023/04/02 00:42:17;;;;;;;1.88;0.65;;;;;;;1.00;100.00;99818.34;4941368;29;20036;-77
2023/04/02 00:44:44;;;;;;;9.27;1.98;;;;;;;0.92;100.00;99783.97;4938599;28;20031;-76
2023/04/02 00:47:35;;;;;;;3.58;1.05;;;;;;;1.02;100.00;99875.06;4918977;29;20510;-77
2023/04/02 00:50:22;;;;;;;2.40;0.80;;;;;;;1.11;100.00;99897.19;4924349;29;20044;-77
2023/04/02 00:52:51;;;;;;;6.20;0.75;;;;;;;1.17;100.00;99983.47;4939772;28;20043;-77
2023/04/02 00:55:23;;;;;;;3.75;0.73;;;;;;;1.16;100.00;99955.47;4918864;29;20024;-76
2023/04/02 00:57:50;;;;;;;3.60;1.08;;;;;;;1.21;100.00;99999.81;4938230;29;20075;-75
2023/04/02 01:00:26;;;;;;;4.57;1.00;;;;;;;1.26;100.00;100045.84;4934410;29;20039;-77
2023/04/02 01:03:16;;;;;;;2.78;1.10;;;;;;;1.26;100.00;100077.41;4927588;29;20557;-77
2023/04/02 01:05:44;;;;;;;4.75;1.00;;;;;;;1.26;100.00;100108.97;4938154;29;20518;-77
2023/04/02 01:08:40;;;;;;;5.63;1.17;;;;;;;1.27;100.00;100122.94;4916239;29;20059;-75
2023/04/02 01:11:36;;;;;;;6.13;1.52;;;;;;;1.31;100.00;100157.72;4934096;29;20055;-77
2023/04/02 01:14:05;;;;;;;4.32;0.77;;;;;;;1.36;100.00;100184.50;4941459;28;20400;-76
2023/04/02 01:16:30;;;;;;;6.88;1.52;;;;;;;1.38;100.00;100214.16;4939736;28;20040;-77
2023/04/02 01:19:37;;;;;;;6.13;1.48;;;;;;;1.40;100.00;100235.94;4932722;29;20076;-77
2023/04/02 01:22:08;;;;;;;7.47;2.20;;;;;;;1.45;100.00;100233.78;4897210;29;20175;-76
2023/04/02 01:24:36;;;;;;;7.53;1.30;;;;;;;1.45;100.00;100265.34;4892246;29;20074;-76
2023/04/02 01:27:11;;;;;;;2.15;0.50;;;;;;;1.53;100.00;100294.56;4883325;29;20080;-77
2023/04/02 01:29:45;;;;;;;1.67;0.90;;;;;;;1.56;100.00;100262.75;4890440;29;20152;-77
2023/04/02 01:32:17;;;;;;;5.82;1.83;;;;;;;1.52;100.00;100245.53;4894806;29;20063;-76
2023/04/02 01:34:46;;;;;;;2.33;0.77;;;;;;;1.50;100.00;100272.91;4892114;29;20040;-77
2023/04/02 01:37:26;;;;;;;16.77;2.58;;;;;;;1.53;100.00;100244.59;4881126;29;20028;-76
2023/04/02 01:40:08;;;;;;;3.47;0.57;;;;;;;1.68;100.00;100227.59;4890585;29;20056;-77
2023/04/02 01:42:40;;;;;;;4.65;0.60;;;;;;;1.78;100.00;100197.94;4874362;29;20049;-75
2023/04/02 01:45:15;;;;;;;4.43;0.70;;;;;;;1.72;100.00;100211.59;4896895;29;20505;-76
2023/04/02 01:47:42;;;;;;;3.13;0.70;;;;;;;1.69;100.00;100223.22;4876263;29;20131;-76
2023/04/02 01:50:22;;;;;;;1.73;0.68;;;;;;;1.67;100.00;100260.16;4874002;29;20024;-76
2023/04/02 01:52:58;;;;;;;3.42;0.95;;;;;;;1.72;100.00;100285.28;4896332;29;20657;-77
2023/04/02 01:55:40;;;;;;;3.30;1.02;;;;;;;1.66;100.00;100300.59;4909204;29;20035;-76
2023/04/02 01:58:08;;;;;;;3.47;0.85;;;;;;;1.66;100.00;100336.59;4917240;29;20037;-76
2023/04/02 02:00:36;;;;;;;0.93;0.50;;;;;;;1.77;100.00;100365.56;4938370;29;20031;-76
2023/04/02 02:03:05;;;;;;;4.35;1.30;;;;;;;1.78;100.00;100263.75;4931972;28;20040;-77
2023/04/02 02:05:31;;;;;;;9.18;1.27;;;;;;;1.79;100.00;100183.84;4928598;29;20398;-77
2023/04/02 02:07:57;;;;;;;3.05;0.47;;;;;;;1.80;100.00;100186.38;4924872;29;20028;-76
2023/04/02 02:10:32;;;;;;;2.35;0.90;;;;;;;1.84;100.00;100240.44;4936185;28;20465;-77
2023/04/02 02:12:59;;;;;;;3.53;1.00;;;;;;;1.80;100.00;100180.25;4936756;28;20044;-77
2023/04/02 02:15:25;;;;;;;4.82;0.80;;;;;;;1.90;100.00;100149.63;4933138;29;20032;-76
2023/04/02 02:17:56;;;;;;;;;;;;;;;1.87;100.00;100082.25;4929266;29;20517;-77
2023/04/02 02:20:21;;;;;;;4.35;0.60;;;;;;;1.93;100.00;100028.28;4938611;29;19923;-76
2023/04/02 02:22:49;;;;;;;4.78;0.90;;;;;;;1.94;100.00;99984.34;4936670;28;20062;-77
2023/04/02 02:25:20;;;;;;;4.25;0.77;;;;;;;2.00;100.00;100000.47;4924467;29;20036;-77
2023/04/02 02:28:08;;;;;;;5.38;0.80;;;;;;;2.00;100.00;99971.53;4936441;29;20032;-76
2023/04/02 02:30:42;;;;;;;4.78;0.63;;;;;;;1.97;100.00;99956.00;4928518;29;20029;-76
2023/04/02 02:33:31;;;;;;;4.82;0.65;;;;;;;1.90;100.00;100023.25;4938867;28;20059;-76
2023/04/02 02:36:14;;;;;;;3.75;1.30;;;;;;;1.93;100.00;100070.41;4934442;29;20083;-76
2023/04/02 02:38:49;;;;;;;3.03;0.70;;;;;;;2.05;100.00;100129.97;4936477;29;20130;-76
2023/04/02 02:41:29;;;;;;;5.18;0.95;;;;;;;2.04;100.00;100130.94;4916602;28;20034;-76
2023/04/02 02:44:05;;;;;;;1.58;0.30;;;;;;;1.97;100.00;100111.31;4930275;28;20040;-76
2023/04/02 02:46:33;;;;;;;6.80;0.80;;;;;;;1.87;100.00;100115.63;4938355;29;20407;-76
2023/04/02 02:49:03;;;;;;;3.58;0.88;;;;;;;1.93;100.00;100153.81;4934411;29;20024;-76
2023/04/02 02:51:41;;;;;;;2.75;0.50;;;;;;;1.96;100.00;100238.63;4923672;29;20035;-76
2023/04/02 02:54:12;;;;;;;33.10;1.85;;;;;;;1.94;100.00;100279.22;4935334;28;20564;-75
2023/04/02 02:56:44;;;;;;;3.65;0.50;;;;;;;1.93;100.00;100311.78;4937133;29;20039;-77
2023/04/02 02:59:13;;;;;;;3.42;0.70;;;;;;;1.96;100.00;100338.69;4914330;29;20031;-76
2023/04/02 03:01:44;;;;;;;5.00;1.05;;;;;;;1.92;100.00;100326.75;4936552;28;20027;-76
2023/04/02 03:04:10;;;;;;;5.95;0.77;;;;;;;2.02;100.00;100366.38;4927877;29;20110;-76
2023/04/02 03:06:36;;;;;;;0.98;0.50;;;;;;;2.04;100.00;100356.56;4939452;29;20023;-76
2023/04/02 03:09:01;;;;;;;4.57;0.73;;;;;;;2.05;100.00;100330.09;4931555;29;20506;-76
2023/04/02 03:11:49;;;;;;;4.90;0.57;;;;;;;2.00;100.00;100355.09;4929120;29;20043;-76
2023/04/02 03:14:27;;;;;;;9.02;0.77;;;;;;;2.05;100.00;100403.81;4936425;28;20960;-77
2023/04/02 03:16:59;;;;;;;1.80;0.50;;;;;;;2.01;100.00;100405.00;4928412;29;20317;-76
2023/04/02 03:19:39;;;;;;;4.47;0.45;;;;;;;2.10;100.00;100409.56;4915601;29;20032;-77
2023/04/02 03:22:14;;;;;;;2.50;1.30;;;;;;;2.06;100.00;100362.53;4932236;29;20027;-77
2023/04/02 03:24:56;;;;;;;5.75;0.60;;;;;;;2.13;100.00;100370.78;4936404;28;20039;-76
2023/04/02 03:27:29;;;;;;;5.30;0.60;;;;;;;2.09;100.00;100334.16;4936825;29;20056;-76
2023/04/02 03:30:04;;;;;;;4.47;0.50;;;;;;;2.10;100.00;100335.00;4935896;29;20032;-76
2023/04/02 03:32:37;;;;;;;3.75;0.50;;;;;;;2.13;100.00;100328.66;4934691;29;20040;-76
2023/04/02 03:35:21;;;;;;;6.90;0.77;;;;;;;2.13;100.00;100333.94;4931801;29;20063;-76
2023/04/02 03:38:12;;;;;;;1.38;0.70;;;;;;;2.12;100.00;100333.09;4935951;29;20028;-77
2023/04/02 03:40:48;;;;;;;3.78;0.65;;;;;;;2.13;100.00;100333.94;4935844;29;20075;-75
2023/04/02 03:43:21;;;;;;;1.33;0.57;;;;;;;2.13;100.00;100360.25;4914699;29;20046;-75
2023/04/02 03:45:55;;;;;;;1.63;0.65;;;;;;;2.04;100.00;100327.59;4935867;29;20032;-76
2023/04/02 03:48:36;;;;;;;2.90;0.80;;;;;;;2.08;100.00;100327.25;4915941;29;20030;-76
2023/04/02 03:51:12;;;;;;;1.08;0.68;;;;;;;2.08;100.00;100300.91;4933431;29;20051;-76
2023/04/02 03:53:38;;;;;;;2.95;1.02;;;;;;;2.01;100.00;100291.78;4936800;28;20027;-76
2023/04/02 03:56:05;;;;;;;1.63;0.47;;;;;;;1.93;100.00;100273.13;4935445;29;20504;-76
2023/04/02 03:58:39;;;;;;;4.35;1.02;;;;;;;1.96;100.00;100349.22;4940710;28;20497;-76
2023/04/02 04:01:35;;;;;;;0.45;0.30;;;;;;;1.98;100.00;100392.06;4932929;29;20039;-78
2023/04/02 04:04:24;;;;;;;2.40;0.30;;;;;;;1.92;100.00;100374.13;4940073;28;20043;-77
2023/04/02 04:06:51;;;;;;;6.18;0.93;;;;;;;1.94;100.00;100403.78;4932208;29;20047;-76
2023/04/02 04:09:34;;;;;;;1.02;0.40;;;;;;;1.90;100.00;100412.88;4931485;29;20470;-76
2023/04/02 04:12:23;;;;;;;3.65;0.90;;;;;;;1.81;100.00;100403.03;4933917;29;20467;-77
2023/04/02 04:14:55;;;;;;;0.98;0.60;;;;;;;1.81;100.00;100447.78;4941369;29;20566;-77
2023/04/02 04:17:33;;;;;;;4.88;1.85;;;;;;;1.83;100.00;100451.16;4941974;29;20027;-77
2023/04/02 04:20:14;;;;;;;1.27;0.45;;;;;;;1.85;100.00;100470.28;4933276;29;20492;-77
2023/04/02 04:22:40;;;;;;;4.47;1.45;;;;;;;1.74;100.00;100452.66;4933137;29;20092;-77
2023/04/02 04:25:21;;;;;;;1.58;0.30;;;;;;;1.70;100.00;100445.94;4938951;29;20503;-77
2023/04/02 04:28:21;;;;;;;2.78;0.50;;;;;;;1.65;100.00;100414.69;4941056;29;20488;-77
2023/04/02 04:31:03;;;;;;;4.70;0.60;;;;;;;1.54;100.00;100430.44;4940202;28;20545;-77
2023/04/02 04:33:42;;;;;;;1.48;0.47;;;;;;;1.57;100.00;100464.44;4930579;29;20494;-77
2023/04/02 04:36:27;;;;;;;4.70;1.23;;;;;;;1.58;100.00;100505.56;4938716;29;20127;-77
2023/04/02 04:39:06;;;;;;;1.92;1.33;;;;;;;1.54;100.00;100519.06;4922583;29;20036;-77
2023/04/02 04:41:36;;;;;;;3.50;0.60;;;;;;;1.58;100.00;100558.19;4914567;29;20448;-77
2023/04/02 04:44:22;;;;;;;7.47;0.98;;;;;;;1.56;100.00;100541.69;4943090;28;20047;-77
2023/04/02 04:46:56;;;;;;;2.47;0.40;;;;;;;1.57;100.00;100577.59;4934835;29;21031;-76
2023/04/02 04:49:40;;;;;;;5.03;0.65;;;;;;;1.45;100.00;100579.28;4918738;29;20055;-77
2023/04/02 04:52:31;;;;;;;1.73;0.40;;;;;;;1.52;100.00;100629.66;4934859;29;20073;-77
2023/04/02 04:54:57;;;;;;;0.95;0.85;;;;;;;1.50;100.00;100593.88;4932329;29;20209;-77
2023/04/02 04:57:37;;;;;;;3.22;0.40;;;;;;;1.39;100.00;100553.41;4919370;29;20047;-77
2023/04/02 05:00:18;;;;;;;1.83;0.50;;;;;;;1.38;100.00;100582.44;4937650;29;20090;-77
2023/04/02 05:02:52;;;;;;;2.33;0.50;;;;;;;1.41;100.00;100616.44;4940215;28;20063;-77
2023/04/02 05:05:23;;;;;;;3.63;0.80;;;;;;;1.30;100.00;100579.53;4933886;29;20168;-77
2023/04/02 05:07:57;;;;;;;4.90;1.20;;;;;;;1.17;100.00;100551.44;4941179;29;20044;-76
2023/04/02 05:10:29;;;;;;;1.30;0.35;;;;;;;1.21;100.00;100621.28;4940626;29;20098;-77
2023/04/02 05:13:10;;;;;;;1.85;0.40;;;;;;;1.21;100.00;100617.81;4937880;28;20036;-79
2023/04/02 05:15:45;;;;;;;0.52;0.30;;;;;;;1.21;100.00;100634.41;4924914;29;20027;-77
2023/04/02 05:18:22;;;;;;;2.67;0.73;;;;;;;1.10;100.00;100610.66;4943663;29;20071;-77
2023/04/02 05:20:50;;;;;;;0.98;0.32;;;;;;;1.04;100.00;100646.09;4946607;28;20032;-77
2023/04/02 05:23:27;;;;;;;2.65;0.63;;;;;;;1.10;100.00;100654.50;4946572;28;20031;-76
2023/04/02 05:26:07;;;;;;;2.95;0.60;;;;;;;1.19;100.00;100701.22;4945899;29;20066;-77
2023/04/02 05:28:42;;;;;;;0.20;0.20;;;;;;;1.25;100.00;100664.00;4927299;29;20094;-77
2023/04/02 05:31:16;;;;;;;1.95;0.40;;;;;;;1.18;100.00;100642.53;4927304;29;20035;-77
2023/04/02 05:33:46;;;;;;;3.13;0.63;;;;;;;1.26;100.00;100668.31;4926942;29;20031;-77
2023/04/02 05:36:20;;;;;;;1.42;0.40;;;;;;;1.30;100.00;100638.22;4939306;29;20383;-77
2023/04/02 05:38:52;;;;;;;2.80;0.95;;;;;;;1.46;100.00;100678.31;4940854;29;20528;-77
2023/04/02 05:41:31;;;;;;;3.63;0.55;;;;;;;1.41;100.00;100632.22;4933842;29;20024;-77
2023/04/02 05:44:17;;;;;;;3.83;0.32;;;;;;;1.36;100.00;100600.13;4938853;28;20060;-76
2023/04/02 05:46:53;;;;;;;2.03;0.43;;;;;;;1.35;100.00;100624.75;4938391;29;20530;-77
2023/04/02 05:49:38;;;;;;;2.08;0.50;;;;;;;1.31;100.00;100644.31;4933054;29;20028;-77
2023/04/02 05:52:10;;;;;;;3.78;0.40;;;;;;;1.30;100.00;100655.78;4933384;29;20032;-76
2023/04/02 05:54:51;;;;;;;0.55;0.20;;;;;;;1.28;100.00;100629.59;4938416;28;20039;-76
2023/04/02 05:57:30;;;;;;;0.30;0.20;;;;;;;1.40;100.00;100662.09;4936503;29;20031;-77
2023/04/02 05:59:59;;;;;;;1.33;0.30;;;;;;;1.46;100.00;100666.94;4930211;29;20047;-76
2023/04/02 06:02:35;;;;;;;2.70;0.40;;;;;;;1.54;100.00;100650.63;4933517;29;20081;-77
2023/04/02 06:05:11;;;;;;;0.45;0.32;;;;;;;3.30;100.00;101023.00;4938042;29;20221;-77
2023/04/02 06:07:54;;;;;;;2.55;0.57;;;;;;;4.51;100.00;100711.81;4913996;29;20127;-75
2023/04/02 06:10:27;;;;;;;2.40;0.35;;;;;;;5.35;100.00;100314.00;4937444;28;20048;-76
2023/04/02 06:13:02;;;;;;;7.38;0.98;;;;;;;5.53;100.00;99837.53;4935741;28;20067;-76
2023/04/02 06:15:32;;;;;;;2.80;0.30;;;;;;;6.42;100.00;99696.84;4930739;28;20490;-76
2023/04/02 06:18:07;;;;;;;1.95;0.45;;;;;;;6.53;100.00;99374.84;4938671;28;20039;-77
2023/04/02 06:20:34;;;;;;;0.63;0.50;;;;;;;6.57;97.88;99124.25;4936028;29;20191;-79
2023/04/02 06:23:18;;;;;;;1.85;0.52;;;;;;;6.16;96.69;98994.66;4929854;29;20071;-76
2023/04/02 06:26:13;;;;;;;0.80;0.30;;;;;;;5.81;95.34;98866.25;4928847;29;20036;-76
2023/04/02 06:28:45;;;;;;;2.67;0.93;;;;;;;4.97;94.81;98700.31;4916998;29;20090;-78
2023/04/02 06:31:26;;;;;;;3.08;0.30;;;;;;;4.79;95.94;98855.78;4936986;29;20043;-77
2023/04/02 06:33:53;;;;;;;1.70;0.28;;;;;;;4.90;97.51;99178.03;4928933;29;20350;-76
2023/04/02 06:36:22;;;;;;;1.02;0.50;;;;;;;4.82;97.58;99162.97;4932976;28;20061;-78
2023/04/02 06:38:50;;;;;;;2.55;0.50;;;;;;;5.30;95.86;99213.41;4936125;29;20150;-78
2023/04/02 06:41:20;;;;;;;2.75;0.60;;;;;;;5.10;96.15;99156.53;4916990;29;20106;-76
2023/04/02 06:44:17;;;;;;;1.08;0.40;;;;;;;5.11;96.16;99280.72;4923006;29;20136;-76
2023/04/02 06:47:29;;;;;;;1.83;0.20;;;;;;;5.88;94.56;99371.28;4935181;29;20051;-77
2023/04/02 06:50:05;;;;;;;5.68;1.08;;;;;;;6.45;93.44;99390.78;4929636;29;20418;-75
2023/04/02 06:52:48;;;;;;;0.75;0.30;;;;;;;6.63;91.36;99204.94;4940511;28;20031;-77
2023/04/02 06:55:32;;;;;;;1.65;0.90;;;;;;;6.92;89.70;99153.84;4935207;29;20091;-76
2023/04/02 06:57:58;;;;;;;0.98;0.40;;;;;;;6.65;88.66;99007.53;4930140;29;20040;-79
2023/04/02 07:00:42;;;;;;;0.88;0.57;;;;;;;6.74;88.62;99096.63;4922897;29;20453;-76
2023/04/02 07:03:25;;;;;;;2.58;0.60;;;;;;;5.58;88.31;98728.59;4944146;28;20434;-77
2023/04/02 07:05:52;;;;;;;2.30;0.38;;;;;;;6.30;89.90;99216.53;4942410;29;20038;-76
2023/04/02 07:08:18;;;;;;;1.27;0.40;;;;;;;5.82;89.59;99032.91;4944673;29;20042;-75
2023/04/02 07:10:43;;;;;;;2.17;0.57;;;;;;;6.05;90.48;99283.84;4943788;28;20036;-76
2023/04/02 07:13:18;;;;;;;1.90;0.60;;;;;;;5.84;89.78;99109.56;4925338;29;20241;-76
2023/04/02 07:15:45;;;;;;;2.38;0.40;;;;;;;5.86;90.62;99267.31;4938577;28;20035;-77
2023/04/02 07:18:31;;;;;;;2.88;0.70;;;;;;;6.33;89.76;99337.28;4938584;29;20114;-76
2023/04/02 07:21:00;;;;;;;3.30;0.40;;;;;;;6.20;90.15;99364.31;4941764;29;20047;-77
2023/04/02 07:23:26;;;;;;;1.27;0.60;;;;;;;6.35;89.84;99380.38;4929219;29;20501;-77
2023/04/02 07:25:53;;;;;;;3.10;0.97;;;;;;;6.73;88.68;99385.91;4920961;29;20043;-75
2023/04/02 07:28:18;;;;;;;2.00;0.60;;;;;;;6.39;87.78;99150.22;4915401;29;20493;-78
2023/04/02 07:30:45;;;;;;;1.63;0.70;;;;;;;4.85;89.45;99042.84;4938030;29;20043;-78
2023/04/02 07:33:15;;;;;;;6.32;1.05;;;;;;;5.93;91.16;99580.06;4916116;29;20024;-77
2023/04/02 07:35:41;;;;;;;1.50;0.60;;;;;;;5.72;91.54;99557.47;4916100;29;20067;-77
2023/04/02 07:38:07;;;;;;;2.97;1.15;;;;;;;5.45;90.60;99415.56;4937957;29;20119;-76
2023/04/02 07:40:32;;;;;;;2.75;0.73;;;;;;;6.17;91.52;99709.19;4937226;29;20488;-77
2023/04/02 07:42:57;;;;;;;2.97;0.80;;;;;;;6.64;90.52;99705.19;4930823;29;20115;-76
2023/04/02 07:45:23;;;;;;;1.80;0.73;;;;;;;7.00;89.47;99716.38;4938513;28;20040;-76
2023/04/02 07:47:48;;;;;;;6.03;0.77;;;;;;;6.61;87.03;99271.41;4923559;29;20032;-78
2023/04/02 07:50:13;;;;;;;3.63;0.50;;;;;;;5.89;87.58;99129.22;4915981;29;20505;-79
2023/04/02 07:52:41;;;;;;;6.23;1.10;;;;;;;7.04;88.85;99695.63;4936338;28;20033;-78
2023/04/02 07:55:08;;;;;;;0.45;0.40;;;;;;;7.38;86.96;99544.91;4925501;29;20497;-77
2023/04/02 07:57:47;;;;;;;3.03;0.30;;;;;;;7.98;85.49;99551.47;4921945;29;20053;-77
2023/04/02 08:00:14;;;;;;;3.03;0.47;;;;;;;7.43;83.50;99124.84;4910990;29;20153;-77
2023/04/02 08:02:39;;;;;;;3.60;0.60;;;;;;;7.97;84.06;99405.47;4930289;29;20036;-78
2023/04/02 08:05:05;;;;;;;1.30;0.40;;;;;;;8.27;82.12;99254.81;4922780;29;20457;-77
2023/04/02 08:07:31;;;;;;;5.30;0.60;;;;;;;7.73;79.85;98742.34;4939778;28;20327;-77
2023/04/02 08:09:56;;;;;;;2.87;0.53;;;;;;;7.16;81.52;98943.97;4921387;29;20074;-76
2023/04/02 08:12:21;;;;;;;3.77;0.60;;;;;;;7.31;81.67;99057.28;4931743;29;20046;-77
2023/04/02 08:14:47;;;;;;;2.20;0.60;;;;;;;7.49;80.68;99025.03;4935479;29;20043;-76
2023/04/02 08:17:12;;;;;;;2.33;0.60;;;;;;;8.24;79.55;99104.47;4915781;29;20036;-76
2023/04/02 08:19:38;;;;;;;0.77;0.50;;;;;;;8.69;78.82;99164.72;4927083;29;20032;-76
2023/04/02 08:22:03;;;;;;;3.78;0.90;;;;;;;8.69;77.25;98958.00;4943345;29;20039;-77
2023/04/02 08:24:29;;;;;;;4.13;0.70;;;;;;;6.89;75.02;97995.03;4937855;28;20039;-77
2023/04/02 08:26:54;;;;;;;3.33;0.63;;;;;;;6.26;77.84;98417.53;4943084;28;20437;-77
2023/04/02 08:29:23;;;;;;;4.40;0.70;;;;;;;8.13;79.54;99383.25;4928125;29;20082;-76
2023/04/02 08:31:48;;;;;;;2.80;0.50;;;;;;;8.80;77.95;99303.41;4927438;29;20942;-78
2023/04/02 08:34:13;;;;;;;1.53;0.50;;;;;;;9.78;76.41;99393.56;4943467;28;20039;-77
2023/04/02 08:36:42;;;;;;;1.33;0.70;;;;;;;9.24;74.15;98881.72;4927618;29;20074;-75
2023/04/02 08:39:10;;;;;;;3.38;0.50;;;;;;;9.84;73.96;99030.31;4928143;29;20027;-77
2023/04/02 08:41:43;;;;;;;0.75;0.35;;;;;;;10.29;72.39;99004.00;4931412;29;20020;-76
2023/04/02 08:44:42;;;;;;;0.57;0.57;;;;;;;10.89;71.93;99137.50;4931275;29;20074;-77
2023/04/02 08:47:09;;;;;;;0.95;0.60;;;;;;;11.46;69.52;98981.06;4927903;29;20074;-76
2023/04/02 08:49:43;;;;;;;1.10;0.50;;;;;;;9.92;67.48;98090.03;4931314;29;20062;-76
2023/04/02 08:52:22;;;;;;;2.38;0.65;;;;;;;8.93;69.15;98208.91;4930573;29;20039;-77
2023/04/02 08:54:49;;;;;;;3.88;1.08;;;;;;;9.91;68.97;98636.66;4938699;29;20580;-76
2023/04/02 08:57:22;;;;;;;2.95;0.65;;;;;;;10.69;68.26;98827.88;4930404;29;20127;-77
2023/04/02 08:59:53;;;;;;;2.95;0.50;;;;;;;10.98;66.56;98672.50;4945709;29;20449;-77
2023/04/02 09:02:30;;;;;;;1.30;0.32;;;;;;;11.40;64.58;98539.22;4930568;29;20040;-76
2023/04/02 09:05:01;;;;;;;3.20;0.65;;;;;;;10.99;64.10;98380.44;4930765;29;20066;-77
2023/04/02 09:07:27;;;;;;;1.83;0.55;;;;;;;11.16;62.58;98273.00;4931110;29;20031;-77
2023/04/02 09:09:52;;;;;;;1.88;0.52;;;;;;;11.39;63.62;98580.31;4944916;28;20079;-75
2023/04/02 09:12:30;;;;;;;3.47;1.00;;;;;;;10.79;62.25;98078.22;4928087;29;20510;-75
2023/04/02 09:15:34;;;;;;;3.13;1.23;;;;;;;11.09;61.78;98214.34;4944823;29;20040;-76
2023/04/02 09:18:15;;;;;;;2.22;0.98;;;;;;;10.68;62.89;98279.16;4876093;29;20132;-77
2023/04/02 09:20:41;;;;;;;1.83;0.82;;;;;;;10.96;63.76;98637.19;4872977;29;20131;-76
2023/04/02 09:23:17;;;;;;;1.15;0.70;;;;;;;10.92;63.76;98584.44;4871734;29;20542;-78
2023/04/02 09:25:47;;;;;;;1.90;0.70;;;;;;;11.28;64.80;98933.66;4875461;29;20052;-77
2023/04/02 09:28:13;;;;;;;2.10;1.15;;;;;;;11.31;63.14;98625.22;4861723;29;20033;-75
2023/04/02 09:31:15;;;;;;;3.03;0.70;;;;;;;12.00;62.05;98735.63;4875636;29;20040;-79
2023/04/02 09:33:47;;;;;;;4.13;1.13;;;;;;;11.86;62.18;98654.69;4874180;29;20041;-76
2023/04/02 09:36:35;;;;;;;2.83;0.77;;;;;;;11.36;63.71;98781.13;4861921;29;20040;-78
2023/04/02 09:39:15;;;;;;;1.77;0.60;;;;;;;10.56;63.65;98420.50;4856469;29;20069;-77
2023/04/02 09:41:40;;;;;;;2.00;0.80;;;;;;;9.49;64.65;98314.66;4855003;29;20128;-76
2023/04/02 09:44:20;;;;;;;2.10;0.60;;;;;;;9.27;66.59;98603.56;4872949;29;20116;-76
2023/04/02 09:46:51;;;;;;;2.67;0.70;;;;;;;8.56;67.14;98564.25;4860384;29;20072;-78
2023/04/02 09:49:20;;;;;;;2.03;0.70;;;;;;;8.02;67.85;98542.00;4858405;29;20499;-76
2023/04/02 09:52:06;;;;;;;3.13;0.65;;;;;;;8.02;68.02;98659.75;4878606;29;20031;-76
2023/04/02 09:54:31;;;;;;;2.15;0.70;;;;;;;9.17;69.22;99348.66;4913134;29;20060;-77
2023/04/02 09:57:00;;;;;;;1.48;0.95;;;;;;;9.21;67.23;99004.59;4939376;28;20442;-77
2023/04/02 09:59:26;;;;;;;2.95;0.93;;;;;;;8.93;67.56;98923.97;4930537;29;20093;-76
2023/04/02 10:01:54;;;;;;;3.45;0.80;;;;;;;9.25;66.75;98968.56;4934738;29;20047;-77
2023/04/02 10:04:43;;;;;;;3.88;1.10;;;;;;;8.21;66.60;98458.84;4939412;28;20114;-76
2023/04/02 10:07:29;;;;;;;4.60;0.63;;;;;;;8.97;67.72;99071.63;4933805;29;20970;-77
2023/04/02 10:10:13;;;;;;;3.45;0.60;;;;;;;10.25;66.77;99440.97;4920797;29;20040;-76
2023/04/02 10:12:41;;;;;;;3.25;1.65;;;;;;;9.01;65.61;98649.63;4930558;29;20402;-78
2023/04/02 10:15:15;;;;;;;2.30;1.00;;;;;;;9.59;67.03;99201.34;4924616;29;20492;-76
2023/04/02 10:17:42;;;;;;;3.95;0.95;;;;;;;8.41;65.59;98379.13;4937044;28;20552;-76
2023/04/02 10:20:18;;;;;;;4.78;0.88;;;;;;;9.70;67.08;99298.59;4914380;29;20507;-77
2023/04/02 10:22:45;;;;;;;4.90;0.77;;;;;;;9.75;65.99;99106.13;4922264;29;20031;-78
2023/04/02 10:25:14;;;;;;;;;;;;;;;10.73;65.16;99349.59;4917534;29;20024;-75
2023/04/02 10:27:56;;;;;;;3.30;0.60;;;;;;;11.41;63.75;99315.72;4937284;28;19954;-76
2023/04/02 10:30:42;;;;;;;2.97;0.77;;;;;;;11.77;62.48;99244.19;4916060;29;20317;-76
2023/04/02 10:33:20;;;;;;;2.78;1.58;;;;;;;11.33;61.10;98767.38;4935384;28;20036;-76
2023/04/02 10:36:04;;;;;;;1.67;0.73;;;;;;;9.78;61.29;98157.03;4934273;28;20117;-76
2023/04/02 10:38:41;;;;;;;4.32;1.10;;;;;;;10.56;62.15;98738.00;4925300;29;20035;-76
2023/04/02 10:41:41;;;;;;;2.58;0.57;;;;;;;11.74;62.13;99207.19;4938942;29;20126;-77
2023/04/02 10:44:30;;;;;;;1.83;0.90;;;;;;;12.30;60.13;99136.28;4918581;29;20109;-77
2023/04/02 10:47:03;;;;;;;2.38;0.73;;;;;;;11.42;60.50;98680.59;4928747;29;20043;-76
2023/04/02 10:49:54;;;;;;;3.83;2.00;;;;;;;10.11;59.98;98037.53;4893695;29;20039;-76
2023/04/02 10:52:23;;;;;;;4.45;1.48;;;;;;;11.38;60.11;98781.75;4926717;29;20222;-77
2023/04/02 10:54:55;;;;;;;3.97;1.17;;;;;;;11.09;60.64;98622.09;4919764;29;20050;-79
2023/04/02 10:57:32;;;;;;;3.35;1.35;;;;;;;10.46;60.48;98423.66;4912067;29;20118;-76
2023/04/02 11:00:16;;;;;;;4.63;1.77;;;;;;;10.20;58.68;97979.34;4921709;29;20047;-76
2023/04/02 11:03:20;;;;;;;3.30;1.48;;;;;;;11.73;60.33;99039.75;4927094;28;20089;-76
2023/04/02 11:05:52;;;;;;;2.23;0.83;;;;;;;11.80;59.28;98851.56;4929448;29;20043;-77
2023/04/02 11:08:38;;;;;;;0.75;0.65;;;;;;;12.98;58.76;99251.66;4935537;29;20043;-78
2023/04/02 11:11:14;;;;;;;4.22;0.90;;;;;;;12.20;58.47;98788.94;4910710;29;20063;-77
2023/04/02 11:13:53;;;;;;;1.27;0.93;;;;;;;11.97;59.13;98736.88;4915051;29;20126;-76
2023/04/02 11:16:19;;;;;;;3.28;0.95;;;;;;;11.70;59.27;98730.09;4917903;29;20043;-78
2023/04/02 11:19:03;;;;;;;;;;;;;;;11.47;60.31;98778.78;4925186;29;20076;-76
2023/04/02 11:21:28;;;;;;;2.00;0.70;;;;;;;11.05;60.58;98690.31;4943847;29;19970;-78
2023/04/02 11:24:01;;;;;;;2.90;1.13;;;;;;;11.39;59.97;98796.72;4944715;28;20043;-76
2023/04/02 11:26:33;;;;;;;2.97;0.77;;;;;;;10.73;60.26;98484.81;4929322;29;20051;-76
2023/04/02 11:29:27;;;;;;;1.80;0.90;;;;;;;11.61;60.12;98957.59;4944197;28;20203;-78
2023/04/02 11:32:21;;;;;;;4.03;1.27;;;;;;;11.99;60.09;99137.84;4928909;29;20867;-76
2023/04/02 11:34:46;;;;;;;4.05;0.82;;;;;;;12.50;59.25;99190.50;4944594;28;20098;-75
2023/04/02 11:37:41;;;;;;;2.63;1.30;;;;;;;12.30;57.91;98799.13;4944368;29;20023;-76
2023/04/02 11:40:13;;;;;;;;;;;;;;;12.13;57.93;98660.59;4944712;29;20486;-76
2023/04/02 11:42:44;;;;;;;2.33;1.40;;;;;;;11.92;57.98;98618.25;4944575;29;19926;-78
2023/04/02 11:45:18;;;;;;;2.53;0.90;;;;;;;11.65;58.73;98693.34;4915615;29;20482;-77
2023/04/02 11:48:24;;;;;;;3.53;0.75;;;;;;;11.94;57.97;98634.88;4944696;29;20118;-76
2023/04/02 11:50:50;;;;;;;;;;;;;;;12.11;58.11;98785.72;4944249;29;20051;-76
2023/04/02 11:53:21;;;;;;;4.22;1.00;;;;;;;11.98;58.40;98705.59;4944505;28;19957;-77
2023/04/02 11:56:05;;;;;;;1.85;0.88;;;;;;;11.55;57.32;98314.38;4929690;29;20036;-77
2023/04/02 11:58:33;;;;;;;1.88;0.80;;;;;;;11.69;58.94;98838.06;4929526;29;20031;-77
2023/04/02 12:01:06;;;;;;;4.30;1.10;;;;;;;11.54;58.21;98553.25;4928651;29;20035;-80
2023/04/02 12:03:41;;;;;;;4.28;1.15;;;;;;;10.63;59.21;98319.03;4944869;28;20039;-76
2023/04/02 12:06:47;;;;;;;2.55;0.70;;;;;;;10.47;59.45;98363.13;4944814;29;20035;-76
2023/04/02 12:09:30;;;;;;;1.73;0.68;;;;;;;9.89;60.75;98486.78;4944616;29;20044;-76
2023/04/02 12:11:59;;;;;;;4.07;0.63;;;;;;;10.02;61.56;98755.97;4930257;29;20054;-76